Time;durP1;ratioP1;P1;durP2;ratioP2;P2;SDS_P1;SDS_P2;PMS_P1;PMS_P2;Temp;Humidity;BMP_temperature;BMP_pressure;BME280_temperature;BME280_humidity;BME280_pressure;Samples;Min_cycle;Max_cycle;Signal;HPM_P1;HPM_P2
2023/07/20 00:00:08;;;;;;;3.85;1.70;;;18.20;94.90;;;18.00;74.53;97095.31;5005458;28;20044;-36
2023/07/20 00:02:33;;;;;;;4.20;2.10;;;18.10;94.70;;;17.99;73.24;97098.97;4999436;28;20038;-36
2023/07/20 00:04:59;;;;;;;5.00;1.85;;;18.10;93.60;;;17.91;72.19;97116.38;4996923;28;20033;-36
2023/07/20 00:07:25;;;;;;;3.85;1.90;;;18.00;94.10;;;17.82;73.00;97103.69;4989853;28;20492;-36
2023/07/20 00:09:51;;;;;;;4.47;1.67;;;18.00;94.00;;;17.78;80.24;97109.31;4990034;28;20549;-36
2023/07/20 00:12:17;;;;;;;2.92;1.38;;;17.90;95.50;;;17.68;80.94;97112.63;4987658;28;20038;-36
2023/07/20 00:14:42;;;;;;;4.28;2.05;;;17.80;95.80;;;17.58;78.55;97105.41;4990364;28;20332;-36
2023/07/20 00:17:08;;;;;;;2.05;1.77;;;17.70;95.30;;;17.59;69.22;97107.97;4987861;28;20494;-36
2023/07/20 00:19:34;;;;;;;2.45;1.50;;;17.70;93.10;;;17.65;65.40;97099.50;4992931;28;20034;-36
2023/07/20 00:22:01;;;;;;;2.70;1.60;;;17.70;92.70;;;17.60;70.81;97095.47;4991308;28;20453;-36
2023/07/20 00:24:27;;;;;;;3.75;1.83;;;17.70;93.40;;;17.54;69.81;97105.59;4986912;28;20401;-36
2023/07/20 00:26:52;;;;;;;3.95;1.70;;;17.70;93.50;;;17.51;71.37;97110.28;4990559;28;20034;-36
2023/07/20 00:29:18;;;;;;;2.53;1.33;;;17.60;93.50;;;17.46;66.42;97112.41;4990926;28;20026;-36
2023/07/20 00:31:44;;;;;;;2.70;1.60;;;17.60;92.80;;;17.38;67.80;97106.78;4986082;28;20712;-36
2023/07/20 00:34:09;;;;;;;2.97;1.50;;;17.50;92.90;;;17.33;71.59;97104.44;4989059;28;20030;-36
2023/07/20 00:36:35;;;;;;;5.10;1.48;;;17.50;93.40;;;17.27;70.16;97097.72;4991764;28;20375;-35
2023/07/20 00:39:02;;;;;;;4.70;1.60;;;17.40;93.70;;;17.22;68.92;97105.16;4989103;28;20037;-36
2023/07/20 00:41:29;;;;;;;2.55;1.63;;;17.30;93.20;;;17.18;66.63;97107.19;4990758;28;20374;-36
2023/07/20 00:43:56;;;;;;;2.58;1.38;;;17.30;92.90;;;17.16;71.32;97113.59;4988487;28;20856;-35
2023/07/20 00:46:24;;;;;;;2.42;1.50;;;17.30;93.70;;;17.16;69.71;97116.25;4985948;28;20087;-37
2023/07/20 00:48:51;;;;;;;2.03;1.40;;;17.30;93.50;;;17.09;68.57;97109.63;4989523;28;20143;-36
2023/07/20 00:51:17;;;;;;;3.47;1.80;;;17.20;93.10;;;17.07;68.16;97108.88;4988953;28;20029;-35
2023/07/20 00:53:42;;;;;;;2.95;1.40;;;17.20;93.10;;;17.03;68.97;97107.38;4985214;28;20033;-35
2023/07/20 00:56:08;;;;;;;5.20;1.42;;;17.20;93.20;;;17.02;68.07;97116.34;4991423;28;20033;-36
2023/07/20 00:58:35;;;;;;;2.22;1.30;;;17.10;93.20;;;17.00;69.58;97124.44;4989827;28;20132;-36
2023/07/20 01:01:00;;;;;;;2.13;1.58;;;17.10;93.80;;;17.03;67.54;97124.22;4998760;28;20069;-36
2023/07/20 01:03:26;;;;;;;3.28;1.90;;;17.10;93.00;;;17.00;68.27;97115.59;4982576;28;20092;-36
2023/07/20 01:06:12;;;;;;;2.17;1.35;;;17.10;93.10;;;16.92;70.05;97116.97;4993116;28;20389;-35
2023/07/20 01:09:00;;;;;;;6.07;1.42;;;17.10;93.60;;;16.89;71.17;97118.97;4977900;28;20044;-36
2023/07/20 01:11:38;;;;;;;3.75;1.75;;;17.00;93.80;;;16.90;68.52;97118.84;4985859;28;20575;-36
2023/07/20 01:14:04;;;;;;;3.60;1.70;;;17.00;93.40;;;16.87;70.62;97113.75;4983950;28;20080;-36
2023/07/20 01:16:30;;;;;;;1.80;1.48;;;17.00;93.60;;;16.86;68.71;97117.34;4987075;28;20026;-38
2023/07/20 01:18:56;;;;;;;3.35;1.98;;;17.00;93.40;;;16.87;69.04;97118.19;4993471;28;20022;-36
2023/07/20 01:21:32;;;;;;;2.35;1.40;;;17.00;93.50;;;16.81;69.83;97116.78;4988118;28;20038;-36
2023/07/20 01:24:37;;;;;;;2.90;1.52;;;16.90;93.60;;;16.74;70.80;97123.47;4980476;28;20387;-36
2023/07/20 01:27:50;;;;;;;2.58;1.48;;;16.80;93.90;;;16.66;71.77;97115.16;4984756;28;20030;-37
2023/07/20 01:30:54;;;;;;;3.63;1.70;;;16.80;94.10;;;16.62;71.72;97119.81;4990071;28;20022;-36
2023/07/20 01:33:21;;;;;;;2.38;1.48;;;16.70;94.10;;;16.56;73.49;97117.53;4989145;28;20292;-35
2023/07/20 01:35:55;;;;;;;2.60;1.65;;;16.70;94.50;;;16.50;73.71;97116.13;4988861;28;20037;-35
2023/07/20 01:38:23;;;;;;;3.58;1.80;;;16.60;94.80;;;16.44;74.66;97119.22;4986223;28;20029;-36
2023/07/20 01:40:49;;;;;;;3.60;1.52;;;16.60;94.90;;;16.38;76.36;97124.91;4984756;28;20025;-36
2023/07/20 01:43:16;;;;;;;2.15;1.65;;;16.60;96.00;;;16.32;77.17;97125.31;4990286;28;20116;-36
2023/07/20 01:45:42;;;;;;;3.08;1.70;;;16.50;95.40;;;16.27;77.52;97116.78;4987552;28;20072;-36
2023/07/20 01:48:07;;;;;;;1.65;1.55;;;16.40;95.50;;;16.23;77.28;97111.66;4989654;28;20050;-35
2023/07/20 01:50:34;;;;;;;3.55;1.80;;;16.40;95.50;;;16.15;77.79;97111.31;4988404;28;20368;-35
2023/07/20 01:53:00;;;;;;;3.50;1.70;;;16.30;95.60;;;16.15;78.75;97118.41;4990471;28;20236;-35
2023/07/20 01:55:26;;;;;;;2.75;1.40;;;16.30;95.80;;;16.10;79.52;97117.88;4988905;28;20033;-36
2023/07/20 01:57:53;;;;;;;2.10;1.60;;;16.20;96.00;;;16.05;79.97;97115.50;4989868;28;20037;-36
2023/07/20 02:00:21;;;;;;;3.92;1.58;;;16.20;96.10;;;16.03;79.83;97114.75;4986919;28;20189;-35
2023/07/20 02:02:47;;;;;;;2.08;1.38;;;16.20;96.10;;;16.00;80.46;97118.44;4991960;28;20331;-35
2023/07/20 02:05:12;;;;;;;2.83;1.80;;;16.20;96.30;;;15.97;80.90;97118.66;4990065;28;20037;-36
2023/07/20 02:07:39;;;;;;;2.17;1.60;;;16.10;96.30;;;15.91;82.42;97118.19;4989970;28;20030;-36
2023/07/20 02:10:05;;;;;;;3.65;1.60;;;16.10;96.70;;;15.87;83.83;97124.66;4986751;28;20033;-36
2023/07/20 02:12:31;;;;;;;3.10;1.75;;;16.00;97.00;;;15.63;85.40;97094.16;4985733;28;20065;-36
2023/07/20 02:14:57;;;;;;;1.77;1.48;;;16.00;97.30;;;15.73;84.87;97123.66;4974065;28;20422;-35
2023/07/20 02:17:22;;;;;;;3.30;1.92;;;15.90;97.20;;;15.68;84.56;97116.91;4985462;28;20057;-35
2023/07/20 02:19:52;;;;;;;2.67;1.88;;;15.90;97.20;;;15.71;85.15;97124.72;4987497;28;20038;-36
2023/07/20 02:22:18;;;;;;;3.40;1.92;;;15.90;97.60;;;15.68;84.84;97120.41;4989352;28;20047;-35
2023/07/20 02:24:44;;;;;;;4.18;2.10;;;15.80;97.20;;;15.65;84.25;97112.66;4987933;28;20083;-36
2023/07/20 02:27:09;;;;;;;2.40;1.42;;;15.80;97.20;;;15.66;84.53;97119.66;4982774;28;20033;-36
2023/07/20 02:29:35;;;;;;;3.60;1.80;;;15.80;97.20;;;15.62;85.82;97115.50;4977191;28;20529;-36
2023/07/20 02:32:02;;;;;;;3.17;1.60;;;15.80;97.50;;;15.61;86.21;97116.44;4987927;28;20018;-35
2023/07/20 02:34:27;;;;;;;2.63;1.67;;;15.80;97.70;;;15.61;85.84;97111.13;4983187;28;20034;-36
2023/07/20 02:36:56;;;;;;;2.63;1.73;;;15.70;97.60;;;15.58;86.10;97117.50;4989342;28;20397;-35
2023/07/20 02:39:22;;;;;;;3.13;1.70;;;15.70;97.70;;;15.55;87.39;97127.47;4985665;28;20430;-35
2023/07/20 02:41:48;;;;;;;2.17;1.67;;;15.70;97.80;;;15.50;89.50;97117.09;4984370;28;20036;-36
2023/07/20 02:44:14;;;;;;;2.13;1.40;;;15.70;98.20;;;15.49;89.35;97119.84;4964964;28;20202;-36
2023/07/20 02:46:40;;;;;;;3.58;1.75;;;15.70;98.30;;;15.46;88.67;97119.09;4986650;28;20026;-35
2023/07/20 02:49:06;;;;;;;5.80;2.03;;;15.70;98.20;;;15.45;88.75;97121.84;4984394;28;20160;-38
2023/07/20 02:51:32;;;;;;;7.07;1.90;;;15.60;98.20;;;15.42;89.17;97122.88;4984883;28;20034;-37
2023/07/20 02:53:57;;;;;;;2.65;1.70;;;15.60;98.30;;;15.40;89.29;97123.94;4986169;28;20033;-35
2023/07/20 02:56:24;;;;;;;4.28;2.00;;;15.60;98.40;;;15.22;90.10;97102.00;4982387;28;20076;-36
2023/07/20 02:58:51;;;;;;;3.72;1.92;;;15.60;98.60;;;15.37;90.60;97130.28;4984350;28;20119;-36
2023/07/20 03:01:16;;;;;;;5.25;1.77;;;15.60;98.70;;;15.37;90.78;97137.41;4987434;28;20084;-35
2023/07/20 03:03:46;;;;;;;3.33;1.90;;;15.50;98.80;;;15.23;90.90;97114.31;4988348;28;20484;-35
2023/07/20 03:06:14;;;;;;;5.10;2.05;;;15.50;98.80;;;15.30;91.36;97131.59;4985314;28;20462;-36
2023/07/20 03:08:41;;;;;;;4.03;1.90;;;15.50;98.90;;;15.28;91.18;97138.81;4984280;28;20042;-36
2023/07/20 03:11:08;;;;;;;2.10;1.60;;;15.50;98.90;;;15.23;91.92;97140.88;4977711;28;20024;-36
2023/07/20 03:13:33;;;;;;;5.10;1.90;;;15.40;99.10;;;15.18;92.08;97135.88;4985207;28;20032;-35
2023/07/20 03:15:59;;;;;;;4.07;1.77;;;15.40;99.20;;;15.17;92.24;97135.94;4983856;28;20034;-35
2023/07/20 03:18:24;;;;;;;3.80;2.13;;;15.40;99.30;;;15.16;92.26;97143.03;4983101;28;20069;-36
2023/07/20 03:20:50;;;;;;;3.22;1.83;;;15.40;99.30;;;15.13;92.48;97139.72;4976607;28;20049;-35
2023/07/20 03:23:16;;;;;;;3.22;1.88;;;15.30;99.40;;;15.10;93.06;97139.91;4982315;28;20429;-35
2023/07/20 03:25:42;;;;;;;3.80;2.00;;;15.30;99.50;;;15.08;93.21;97137.34;4985291;28;20060;-35
2023/07/20 03:28:07;;;;;;;4.88;1.88;;;15.30;99.60;;;15.05;93.58;97138.38;4985219;28;20046;-36
2023/07/20 03:30:34;;;;;;;3.30;1.90;;;15.20;99.70;;;14.96;94.34;97133.59;4983642;28;20054;-36
2023/07/20 03:33:00;;;;;;;3.17;1.83;;;15.20;99.80;;;15.02;93.70;97145.66;4990867;28;20026;-35
2023/07/20 03:35:26;;;;;;;3.05;1.67;;;15.20;99.90;;;14.99;93.89;97141.41;4984745;28;20049;-35
2023/07/20 03:37:52;;;;;;;3.00;1.65;;;15.20;99.90;;;15.01;94.07;97144.81;4992730;28;20045;-35
2023/07/20 03:40:17;;;;;;;2.00;1.80;;;15.20;99.90;;;14.99;93.88;97138.75;4983450;28;20144;-36
2023/07/20 03:42:43;;;;;;;7.22;2.10;;;15.20;99.90;;;14.93;94.62;97135.59;4984270;28;20118;-35
2023/07/20 03:45:09;;;;;;;2.45;1.58;;;15.20;99.90;;;14.99;95.38;97153.81;4981022;28;20033;-35
2023/07/20 03:47:35;;;;;;;2.90;1.70;;;15.20;99.90;;;14.97;96.54;97142.44;4989918;28;20415;-36
2023/07/20 03:50:01;;;;;;;2.17;1.60;;;15.20;99.90;;;14.94;97.85;97148.78;4988538;28;20080;-36
2023/07/20 03:52:26;;;;;;;2.65;1.90;;;15.20;99.90;;;14.93;97.82;97146.19;4987773;28;20405;-35
2023/07/20 03:54:52;;;;;;;2.92;1.80;;;15.10;99.90;;;14.78;98.28;97134.69;4980256;28;20394;-35
2023/07/20 03:57:18;;;;;;;2.13;1.35;;;15.10;99.90;;;14.85;99.43;97152.81;4983248;28;20045;-36
2023/07/20 03:59:48;;;;;;;3.55;1.90;;;15.00;99.90;;;14.81;99.75;97148.63;4971715;28;21031;-35
2023/07/20 04:02:14;;;;;;;3.10;1.85;;;15.00;99.90;;;14.82;99.94;97153.00;4979447;28;20634;-36
2023/07/20 04:04:41;;;;;;;2.38;1.60;;;15.00;99.90;;;14.82;100.00;97142.41;4983268;28;20777;-35
2023/07/20 04:07:07;;;;;;;3.35;1.67;;;15.00;99.90;;;14.82;100.00;97142.41;4987499;28;20562;-35
2023/07/20 04:09:33;;;;;;;1.55;1.42;;;15.00;99.90;;;14.85;100.00;97147.50;4989305;28;20171;-35
2023/07/20 04:11:59;;;;;;;3.20;1.50;;;15.00;99.90;;;14.89;100.00;97153.50;4984329;28;20452;-35
2023/07/20 04:14:25;;;;;;;3.03;1.80;;;15.10;99.90;;;14.95;100.00;97155.81;4986225;28;20445;-36
2023/07/20 04:16:51;;;;;;;2.78;1.65;;;15.10;99.90;;;15.01;100.00;97155.44;4988746;28;20030;-35
2023/07/20 04:19:17;;;;;;;6.60;1.92;;;15.20;99.90;;;15.06;99.27;97158.69;4987875;28;20033;-37
2023/07/20 04:21:43;;;;;;;4.65;1.58;;;15.30;99.90;;;15.15;98.90;97162.59;4980083;28;20385;-35
2023/07/20 04:24:09;;;;;;;3.00;1.88;;;15.30;99.90;;;15.18;99.01;97161.53;4983022;28;20025;-37
2023/07/20 04:26:35;;;;;;;2.97;1.75;;;15.40;99.90;;;15.35;98.68;97161.41;4985130;28;20130;-36
2023/07/20 04:29:01;;;;;;;3.50;1.95;;;15.50;99.90;;;15.44;97.65;97167.97;4982430;28;20116;-35
2023/07/20 04:31:26;;;;;;;3.08;1.70;;;15.60;99.90;;;15.55;97.04;97162.84;4983076;28;20113;-35
2023/07/20 04:33:52;;;;;;;4.15;1.90;;;15.70;99.90;;;15.63;96.00;97157.94;4987327;28;20057;-36
2023/07/20 04:36:19;;;;;;;4.65;1.60;;;15.80;99.90;;;15.75;95.32;97153.69;4987249;28;20041;-36
2023/07/20 04:38:48;;;;;;;2.35;1.60;;;15.90;99.90;;;15.84;95.10;97157.59;4988517;28;20079;-35
2023/07/20 04:41:14;;;;;;;5.78;1.98;;;15.90;99.90;;;15.91;94.53;97158.06;4984486;28;20037;-36
2023/07/20 04:43:44;;;;;;;4.32;1.55;;;16.00;99.90;;;15.96;94.67;97156.81;4975663;28;20061;-36
2023/07/20 04:46:10;;;;;;;3.08;1.85;;;16.10;99.90;;;15.93;94.14;97137.53;4985239;28;20048;-36
2023/07/20 04:48:36;;;;;;;3.47;1.40;;;16.10;99.90;;;16.17;94.13;97164.41;4988963;28;20049;-36
2023/07/20 04:51:03;;;;;;;2.65;1.70;;;16.30;99.90;;;16.25;93.26;97156.78;4991461;28;20462;-36
2023/07/20 04:53:30;;;;;;;2.33;1.63;;;16.40;99.90;;;16.42;92.89;97161.03;4980367;28;20038;-36
2023/07/20 04:55:56;;;;;;;3.03;1.75;;;16.60;99.90;;;16.61;91.19;97166.88;4987453;28;20029;-36
2023/07/20 04:58:22;;;;;;;2.97;1.80;;;16.70;99.90;;;16.76;89.89;97158.81;4982026;28;20071;-36
2023/07/20 05:00:49;;;;;;;3.55;1.60;;;16.90;99.90;;;16.97;89.38;97156.59;4982934;28;20038;-36
2023/07/20 05:03:15;;;;;;;3.10;1.60;;;17.00;99.90;;;17.12;87.90;97165.34;4976474;28;20418;-36
2023/07/20 05:05:41;;;;;;;4.35;1.90;;;17.20;99.90;;;17.18;86.81;97157.81;4973629;28;20475;-37
2023/07/20 05:08:06;;;;;;;2.92;1.65;;;17.30;99.90;;;17.38;85.61;97173.44;4989727;28;20121;-37
2023/07/20 05:10:32;;;;;;;2.40;1.73;;;17.40;99.90;;;17.50;84.42;97172.59;4967711;28;20038;-37
2023/07/20 05:12:59;;;;;;;3.33;1.90;;;17.60;99.90;;;17.66;83.02;97175.91;4970355;28;20601;-36
2023/07/20 05:15:25;;;;;;;3.00;1.77;;;17.70;99.80;;;17.79;81.55;97167.06;4971232;28;20034;-37
2023/07/20 05:17:50;;;;;;;4.22;1.95;;;17.90;99.30;;;17.90;78.26;97169.84;4987284;28;20439;-38
2023/07/20 05:20:16;;;;;;;5.10;1.70;;;18.00;98.70;;;17.95;78.08;97167.72;4993058;28;20406;-37
2023/07/20 05:22:43;;;;;;;4.80;1.88;;;18.00;98.40;;;17.99;78.59;97163.00;4995611;28;20066;-37
2023/07/20 05:25:10;;;;;;;4.13;1.70;;;18.10;98.50;;;18.02;78.54;97165.47;4992557;28;20031;-37
2023/07/20 05:27:40;;;;;;;3.63;1.65;;;18.10;98.60;;;18.07;78.58;97172.19;4993574;28;20045;-37
2023/07/20 05:30:09;;;;;;;4.00;2.03;;;18.20;98.60;;;18.13;76.08;97163.72;4990245;28;20065;-37
2023/07/20 05:32:35;;;;;;;2.90;1.90;;;18.20;98.20;;;18.20;75.86;97166.81;4993235;28;20080;-37
2023/07/20 05:35:01;;;;;;;2.38;1.50;;;18.30;98.00;;;18.31;77.79;97166.91;4993522;28;20036;-37
2023/07/20 05:37:27;;;;;;;4.07;1.70;;;18.40;98.30;;;18.44;76.58;97166.00;4994501;28;20034;-36
2023/07/20 05:39:53;;;;;;;3.20;1.70;;;18.50;98.10;;;18.57;77.16;97161.47;4992888;28;20038;-37
2023/07/20 05:42:18;;;;;;;5.35;1.90;;;18.60;98.30;;;18.67;76.22;97165.19;4993327;28;20489;-37
2023/07/20 05:44:44;;;;;;;2.92;1.63;;;18.70;98.10;;;18.82;76.79;97168.56;4992860;28;20042;-36
2023/07/20 05:47:10;;;;;;;3.83;1.50;;;18.80;98.30;;;18.84;75.30;97165.78;4994635;28;20061;-36
2023/07/20 05:49:36;;;;;;;2.40;1.67;;;18.80;97.90;;;18.91;75.38;97164.34;4995108;28;20032;-36
2023/07/20 05:52:01;;;;;;;2.42;1.70;;;18.80;98.00;;;19.08;74.42;97166.63;4992586;28;20029;-36
2023/07/20 05:54:28;;;;;;;5.50;1.73;;;19.00;97.90;;;19.25;71.41;97162.66;4991377;28;20034;-36
2023/07/20 05:56:54;;;;;;;4.95;1.85;;;19.20;97.30;;;19.45;71.27;97168.31;4992013;28;20049;-35
2023/07/20 05:59:20;;;;;;;1.95;1.42;;;19.40;97.20;;;19.69;69.65;97167.41;4993982;28;20470;-36
2023/07/20 06:01:49;;;;;;;5.68;1.92;;;19.60;96.80;;;19.93;67.27;97170.88;4990942;28;20045;-37
2023/07/20 06:04:16;;;;;;;3.88;1.73;;;19.90;96.20;;;20.00;64.72;97158.72;4987347;28;20058;-35
2023/07/20 06:06:42;;;;;;;4.22;1.73;;;20.00;95.50;;;20.08;64.12;97165.28;4992186;28;20036;-36
2023/07/20 06:09:11;;;;;;;3.03;1.95;;;20.00;95.60;;;20.02;67.00;97172.81;4985681;28;20066;-35
2023/07/20 06:11:38;;;;;;;3.35;1.75;;;20.00;95.90;;;19.97;67.55;97174.16;4988101;28;20053;-35
2023/07/20 06:14:04;;;;;;;2.80;1.55;;;20.00;96.00;;;19.79;64.83;97176.44;4985894;28;20627;-36
2023/07/20 06:16:30;;;;;;;3.53;2.10;;;19.80;95.20;;;19.60;69.46;97180.53;4990191;28;20041;-37
2023/07/20 06:18:56;;;;;;;3.15;1.63;;;19.70;95.80;;;19.54;69.50;97182.81;4991482;28;20477;-36
2023/07/20 06:21:21;;;;;;;3.45;1.70;;;19.60;96.20;;;19.54;71.55;97182.81;4991353;28;20045;-36
2023/07/20 06:23:47;;;;;;;5.25;2.28;;;19.60;96.70;;;19.53;71.14;97181.13;4988791;28;20796;-35
2023/07/20 06:26:13;;;;;;;6.45;1.90;;;19.60;96.60;;;19.61;69.19;97184.91;4991086;28;20030;-37
2023/07/20 06:28:39;;;;;;;3.78;1.80;;;19.60;96.30;;;19.56;68.95;97176.38;4993187;28;20074;-35
2023/07/20 06:31:04;;;;;;;4.53;1.88;;;19.60;96.10;;;19.47;69.59;97182.44;4988386;28;20029;-37
2023/07/20 06:33:30;;;;;;;4.15;1.60;;;19.60;96.20;;;19.52;70.85;97177.56;4990204;28;20068;-35
2023/07/20 06:35:56;;;;;;;3.70;1.77;;;19.50;96.60;;;19.61;70.50;97176.91;4990922;28;20044;-35
2023/07/20 06:38:23;;;;;;;7.28;1.63;;;19.60;96.60;;;19.69;69.76;97165.59;4989894;28;20030;-35
2023/07/20 06:40:50;;;;;;;2.70;1.52;;;19.80;96.60;;;19.92;68.25;97165.63;4990386;28;20124;-35
2023/07/20 06:43:16;;;;;;;4.90;2.17;;;19.90;96.20;;;20.16;65.46;97173.56;4991917;28;20026;-37
2023/07/20 06:45:42;;;;;;;3.13;1.58;;;20.10;95.60;;;20.21;66.20;97179.41;4993633;28;20053;-36
2023/07/20 06:48:08;;;;;;;6.38;1.92;;;20.30;95.70;;;20.15;66.42;97163.81;4990445;28;20034;-35
2023/07/20 06:50:33;;;;;;;4.55;1.73;;;20.20;95.60;;;20.06;66.32;97177.94;4989801;28;20100;-35
2023/07/20 06:52:59;;;;;;;3.83;1.70;;;20.10;95.60;;;19.93;66.57;97178.91;4977965;28;20033;-35
2023/07/20 06:55:26;;;;;;;4.78;1.90;;;20.00;95.30;;;20.05;68.62;97176.25;4987966;28;20045;-35
2023/07/20 06:57:52;;;;;;;3.15;1.52;;;20.10;96.00;;;20.12;67.46;97172.97;4991040;28;20033;-35
2023/07/20 07:00:18;;;;;;;3.75;1.75;;;20.10;95.90;;;20.22;65.93;97167.72;4993350;28;20577;-35
2023/07/20 07:02:43;;;;;;;3.33;1.70;;;20.30;95.60;;;20.39;66.23;97174.41;4993439;28;20042;-35
2023/07/20 07:05:09;;;;;;;3.35;1.50;;;20.40;95.40;;;20.49;64.84;97175.34;4991090;28;20030;-35
2023/07/20 07:07:35;;;;;;;2.97;1.98;;;20.50;95.70;;;20.56;63.57;97173.03;4991379;28;20049;-35
2023/07/20 07:10:04;;;;;;;7.70;1.92;;;20.60;94.80;;;20.53;63.33;97160.75;4994588;28;20048;-35
2023/07/20 07:12:30;;;;;;;2.88;1.58;;;20.60;94.90;;;20.75;62.64;97169.75;4991430;28;20028;-35
2023/07/20 07:14:56;;;;;;;4.32;1.50;;;20.70;94.70;;;20.77;62.44;97160.59;4995008;28;20034;-35
2023/07/20 07:17:22;;;;;;;3.65;1.90;;;20.80;94.70;;;20.97;62.10;97161.63;4991405;28;20022;-35
2023/07/20 07:19:48;;;;;;;2.40;1.52;;;20.90;94.50;;;21.14;61.03;97162.06;4996153;28;20505;-36
2023/07/20 07:22:13;;;;;;;3.42;1.63;;;21.00;94.40;;;21.32;58.85;97165.03;4993591;28;20046;-35
2023/07/20 07:24:41;;;;;;;3.20;1.67;;;21.10;93.80;;;21.46;57.68;97159.38;4988045;28;20081;-36
2023/07/20 07:27:08;;;;;;;2.67;1.90;;;21.20;93.60;;;21.64;58.45;97161.44;4991719;28;20030;-35
2023/07/20 07:29:34;;;;;;;3.10;1.88;;;21.40;93.70;;;21.78;57.75;97165.63;4994446;28;20028;-36
2023/07/20 07:31:59;;;;;;;3.42;1.70;;;21.50;93.90;;;21.90;56.00;97167.25;4995040;28;20041;-36
2023/07/20 07:34:26;;;;;;;2.63;1.70;;;21.70;92.90;;;21.98;56.64;97164.75;4991474;28;20117;-36
2023/07/20 07:36:51;;;;;;;4.53;2.05;;;21.80;93.00;;;22.07;56.77;97165.78;4992977;28;20157;-35
2023/07/20 07:39:17;;;;;;;2.78;1.75;;;21.90;93.20;;;21.98;59.05;97166.59;4994741;28;20054;-35
2023/07/20 07:41:43;;;;;;;3.65;1.85;;;21.90;93.60;;;21.87;56.03;97163.00;4992581;28;20509;-35
2023/07/20 07:44:09;;;;;;;4.35;1.80;;;21.80;92.70;;;21.84;55.76;97165.97;4991595;28;20516;-36
2023/07/20 07:46:34;;;;;;;2.70;1.67;;;21.80;92.40;;;21.87;55.18;97163.00;4996337;28;20034;-36
2023/07/20 07:49:00;;;;;;;2.85;1.70;;;21.80;92.20;;;22.00;54.36;97157.44;4994266;28;20457;-36
2023/07/20 07:51:27;;;;;;;3.15;1.73;;;22.00;92.20;;;22.14;54.71;97163.41;4994374;28;20306;-36
2023/07/20 07:53:52;;;;;;;7.10;2.00;;;22.10;92.30;;;21.99;51.93;97169.16;4993358;28;20029;-36
2023/07/20 07:56:22;;;;;;;3.25;1.80;;;22.10;90.90;;;21.77;55.63;97151.38;4994593;28;20026;-35
2023/07/20 07:58:49;;;;;;;5.97;1.65;;;21.90;91.90;;;21.76;53.26;97163.09;4993002;28;20390;-35
2023/07/20 08:01:15;;;;;;;4.38;1.83;;;21.90;91.10;;;21.71;55.94;97163.50;4995402;28;20505;-35
2023/07/20 08:03:41;;;;;;;3.13;1.83;;;21.80;91.80;;;21.69;54.98;97157.38;4996660;28;20088;-36
2023/07/20 08:06:06;;;;;;;4.85;1.58;;;21.80;91.90;;;21.75;53.73;97131.88;4994914;28;20036;-35
2023/07/20 08:08:32;;;;;;;3.03;1.73;;;21.90;91.40;;;22.04;54.71;97158.84;4989815;28;20114;-35
2023/07/20 08:10:59;;;;;;;6.47;2.00;;;22.10;91.60;;;22.11;56.16;97153.81;4987346;28;20449;-36
2023/07/20 08:13:24;;;;;;;4.32;2.00;;;22.20;92.00;;;22.22;55.43;97148.34;4983881;28;20038;-36
2023/07/20 08:15:52;;;;;;;2.88;1.73;;;22.30;91.80;;;22.42;50.90;97160.03;4990212;28;20539;-36
2023/07/20 08:18:18;;;;;;;3.08;1.90;;;22.60;90.40;;;22.56;53.31;97161.47;4992136;28;20453;-36
2023/07/20 08:20:45;;;;;;;5.55;1.80;;;22.80;90.80;;;22.61;52.08;97161.06;4992000;28;20034;-36
2023/07/20 08:23:10;;;;;;;2.72;1.60;;;22.70;90.40;;;22.29;50.43;97160.25;4991828;28;20614;-36
2023/07/20 08:25:39;;;;;;;2.15;1.70;;;22.50;89.00;;;22.35;55.40;97160.72;4995790;28;20067;-36
2023/07/20 08:28:05;;;;;;;2.90;1.67;;;22.50;91.50;;;22.37;56.91;97162.25;4993631;28;20437;-36
2023/07/20 08:30:42;;;;;;;2.22;1.63;;;22.40;92.30;;;22.03;57.96;97140.19;4997164;28;20025;-36
2023/07/20 08:33:08;;;;;;;4.88;2.20;;;22.20;92.10;;;21.76;56.43;97152.34;4992566;28;20026;-36
2023/07/20 08:35:34;;;;;;;2.60;1.40;;;21.90;91.70;;;21.51;59.85;97157.13;4996108;28;20045;-36
2023/07/20 08:37:59;;;;;;;5.30;1.60;;;21.60;93.00;;;21.52;60.62;97156.16;4995160;28;20132;-35
2023/07/20 08:40:25;;;;;;;3.50;1.77;;;21.60;92.90;;;21.80;63.26;97159.13;4991410;28;20044;-37
2023/07/20 08:42:52;;;;;;;4.78;2.00;;;21.80;93.60;;;22.13;55.29;97157.22;4993091;28;20470;-39
2023/07/20 08:45:18;;;;;;;3.10;1.70;;;22.10;92.10;;;22.30;54.29;97159.25;5009252;28;20056;-37
2023/07/20 08:47:47;;;;;;;4.25;1.95;;;22.30;92.10;;;22.39;52.66;97162.97;4991106;28;20029;-37
2023/07/20 08:50:14;;;;;;;3.97;1.90;;;22.40;91.00;;;22.36;52.82;97165.06;4990301;28;20025;-39
2023/07/20 08:52:40;;;;;;;2.63;1.55;;;22.40;90.90;;;22.43;51.49;97153.69;4996692;28;20134;-37
2023/07/20 08:55:06;;;;;;;3.33;1.70;;;22.40;90.30;;;22.45;51.38;97161.56;4990137;28;20151;-38
2023/07/20 08:57:33;;;;;;;4.35;1.67;;;22.50;90.10;;;22.43;49.98;97152.81;4995225;28;20309;-37
2023/07/20 09:00:11;;;;;;;2.65;1.50;;;22.50;89.30;;;22.44;50.47;97151.81;4994177;28;20072;-38
2023/07/20 09:02:42;;;;;;;3.15;1.50;;;22.50;89.00;;;22.54;49.49;97160.78;4996059;28;20022;-37
2023/07/20 09:05:10;;;;;;;2.72;1.80;;;22.60;88.60;;;22.61;48.98;97147.63;4988073;28;20026;-37
2023/07/20 09:07:36;;;;;;;5.65;1.80;;;22.70;88.90;;;22.53;50.61;97153.69;4988071;28;20498;-37
2023/07/20 09:10:06;;;;;;;4.55;1.88;;;22.60;87.60;;;22.40;54.76;97147.72;4993703;28;20053;-38
2023/07/20 09:12:35;;;;;;;3.25;1.98;;;22.50;91.00;;;22.01;57.24;97145.69;4994201;28;20037;-37
2023/07/20 09:15:01;;;;;;;2.65;1.50;;;22.20;91.80;;;21.69;54.05;97146.66;4992747;28;20035;-39
2023/07/20 09:17:27;;;;;;;2.50;1.60;;;21.90;90.60;;;21.55;54.56;97152.34;4993600;28;20449;-37
2023/07/20 09:19:53;;;;;;;2.90;1.70;;;21.70;90.80;;;21.51;51.92;97151.75;4993512;28;20026;-37
2023/07/20 09:22:19;;;;;;;2.38;1.42;;;21.70;89.50;;;21.81;50.32;97147.44;4991787;28;20034;-39
2023/07/20 09:24:45;;;;;;;5.22;1.90;;;21.90;89.10;;;22.19;53.28;97145.06;4993452;28;20030;-37
2023/07/20 09:27:11;;;;;;;7.25;1.80;;;22.20;90.40;;;22.36;56.13;97140.91;4989231;28;20553;-37
2023/07/20 09:29:50;;;;;;;3.08;1.63;;;22.40;92.10;;;22.32;51.56;97134.13;4995456;28;20026;-37
2023/07/20 09:32:21;;;;;;;3.00;1.50;;;22.40;90.80;;;22.01;57.33;97151.06;4991779;28;20022;-37
2023/07/20 09:34:46;;;;;;;3.15;1.52;;;22.10;91.90;;;21.66;54.57;97148.75;4994516;28;20533;-36
2023/07/20 09:37:13;;;;;;;2.47;1.75;;;21.80;90.90;;;21.20;53.70;97133.88;4992794;28;20037;-37
2023/07/20 09:39:46;;;;;;;2.63;1.50;;;21.40;90.30;;;21.30;54.11;97146.38;4994302;28;20041;-38
2023/07/20 09:42:15;;;;;;;5.50;1.60;;;21.40;90.80;;;21.52;54.71;97137.38;4987800;28;20030;-38
2023/07/20 09:44:44;;;;;;;1.92;1.48;;;21.60;91.80;;;21.85;55.77;97122.03;4994447;28;20088;-38
2023/07/20 09:47:10;;;;;;;7.40;1.58;;;21.90;91.90;;;22.08;50.66;97137.97;4991306;28;20390;-37
2023/07/20 09:49:42;;;;;;;3.78;1.73;;;22.10;90.00;;;22.13;50.94;97141.09;4991571;28;20026;-37
2023/07/20 09:52:11;;;;;;;2.97;1.75;;;22.20;89.20;;;22.12;51.25;97134.00;4992348;28;20126;-38
2023/07/20 09:54:38;;;;;;;2.33;1.42;;;22.20;88.60;;;22.07;48.87;97136.25;4986002;28;20103;-38
2023/07/20 09:57:08;;;;;;;3.45;1.50;;;22.20;87.10;;;22.08;49.33;97135.28;4987538;28;20394;-37
2023/07/20 09:59:33;;;;;;;2.75;1.50;;;22.10;87.50;;;22.00;49.46;97135.09;4994246;28;20080;-39
2023/07/20 10:02:05;;;;;;;3.45;1.45;;;22.00;87.70;;;21.94;52.57;97133.78;4992148;28;20120;-38
2023/07/20 10:04:34;;;;;;;1.73;1.40;;;22.00;90.90;;;22.01;50.54;97131.44;4993009;28;20123;-38
2023/07/20 10:07:03;;;;;;;6.93;1.50;;;22.00;88.50;;;22.00;47.06;97133.28;4993012;28;20374;-38
2023/07/20 10:09:29;;;;;;;3.08;1.30;;;22.10;83.90;;;22.15;48.12;97133.75;4995198;28;20034;-39
2023/07/20 10:11:58;;;;;;;3.65;1.65;;;22.20;84.20;;;22.24;47.60;97140.97;4988887;28;20034;-37
2023/07/20 10:14:25;;;;;;;3.03;1.20;;;22.30;85.00;;;22.11;47.20;97133.16;4984643;28;20408;-39
2023/07/20 10:16:52;;;;;;;2.25;1.42;;;22.20;83.10;;;22.04;46.83;97136.53;4989943;28;20080;-37
2023/07/20 10:19:26;;;;;;;2.67;1.35;;;22.10;83.60;;;22.00;47.03;97122.53;5009410;28;20057;-37